Time;durP1;ratioP1;P1;durP2;ratioP2;P2;SDS_P1;SDS_P2;PMS_P1;PMS_P2;Temp;Humidity;BMP_temperature;BMP_pressure;BME280_temperature;BME280_humidity;BME280_pressure;Samples;Min_cycle;Max_cycle;Signal;HPM_P1;HPM_P2
2024/02/07 09:08:15;;;;;;;13.40;4.50;;;;;;;6.89;88.08;95891.03;2082607;28;20557;-66
2024/02/07 09:13:08;;;;;;;6.80;2.60;;;;;;;7.17;86.15;95879.47;2093160;27;20544;-64
2024/02/07 09:19:35;;;;;;;8.20;3.00;;;;;;;7.42;85.73;95881.00;2100643;27;20572;-64
2024/02/07 09:20:36;;;;;;;7.68;4.10;;;;;;;7.53;85.91;95868.38;2099205;28;20575;-64
2024/02/07 09:47:57;;;;;;;9.13;2.30;;;;;;;7.25;87.46;95877.41;2082876;28;20575;-66
2024/02/07 09:50:59;;;;;;;9.70;1.95;;;;;;;7.40;86.94;95875.03;2101547;27;20577;-66
2024/02/07 09:52:01;;;;;;;4.30;2.30;;;;;;;7.40;86.87;95875.88;2089443;28;20218;-69
2024/02/07 09:54:40;;;;;;;6.35;1.92;;;;;;;7.46;86.72;95875.59;2099419;27;20578;-67
2024/02/07 09:55:42;;;;;;;7.47;3.10;;;;;;;7.50;86.79;95878.91;2099044;28;20600;-66
2024/02/07 09:58:12;;;;;;;7.15;2.83;;;;;;;7.58;86.37;95869.03;2109104;27;20559;-66
2024/02/07 09:59:17;;;;;;;8.27;2.30;;;;;;;7.54;85.98;95861.44;2107119;28;20198;-66
2024/02/07 10:00:21;;;;;;;6.75;2.00;;;;;;;7.65;86.01;95870.41;2101539;28;20299;-67
2024/02/07 10:01:27;;;;;;;4.78;2.58;;;;;;;7.70;85.23;95864.19;2099525;28;20473;-68
2024/02/07 10:02:32;;;;;;;5.00;2.50;;;;;;;7.83;84.97;95875.69;2096833;28;20232;-67
2024/02/07 10:03:39;;;;;;;10.52;2.30;;;;;;;7.85;84.67;95869.50;2096375;28;20204;-68
2024/02/07 10:04:48;;;;;;;6.95;3.00;;;;;;;7.97;84.44;95862.91;2095376;28;20192;-67
2024/02/07 10:05:52;;;;;;;7.35;2.47;;;;;;;7.95;84.03;95869.09;2098303;28;20203;-67
2024/02/07 10:06:54;;;;;;;8.85;2.10;;;;;;;8.11;83.75;95856.19;2099449;28;20311;-67
2024/02/07 10:07:55;;;;;;;5.13;2.30;;;;;;;8.26;83.57;95859.84;2100389;28;20205;-68
2024/02/07 10:08:58;;;;;;;5.78;2.38;;;;;;;8.17;83.04;95884.53;2100797;28;20887;-67
2024/02/07 10:10:00;;;;;;;8.32;1.90;;;;;;;8.20;82.90;95873.97;2099838;28;20221;-66
2024/02/07 10:11:02;;;;;;;5.25;2.00;;;;;;;8.24;83.28;95872.94;2097428;28;20193;-67
2024/02/07 10:12:07;;;;;;;4.78;2.30;;;;;;;8.27;83.03;95887.53;2098594;28;20606;-66
2024/02/07 10:13:09;;;;;;;4.35;2.35;;;;;;;8.15;83.25;95863.78;2100575;28;20642;-66
2024/02/07 10:14:11;;;;;;;6.45;2.85;;;;;;;8.23;83.25;95866.03;2099405;28;20290;-67
2024/02/07 10:15:13;;;;;;;5.47;2.00;;;;;;;8.21;83.33;95860.03;2099256;28;20203;-67
2024/02/07 10:16:16;;;;;;;6.32;2.42;;;;;;;8.15;83.25;95861.19;2100932;28;20199;-66
2024/02/07 10:17:18;;;;;;;3.75;2.03;;;;;;;8.09;83.03;95860.66;2098215;28;20215;-66
2024/02/07 10:18:19;;;;;;;3.85;2.25;;;;;;;8.24;83.29;95862.53;2100173;28;20687;-66
2024/02/07 10:19:21;;;;;;;6.55;2.47;;;;;;;8.30;83.26;95872.63;2090672;28;20643;-66
2024/02/07 10:20:24;;;;;;;3.67;1.70;;;;;;;8.22;83.00;95863.50;2089306;28;20253;-67
2024/02/07 10:21:35;;;;;;;3.08;1.55;;;;;;;8.22;83.02;95861.75;2085561;28;20196;-67
2024/02/07 10:22:40;;;;;;;4.72;1.75;;;;;;;8.26;83.10;95863.28;2087777;28;20219;-67
2024/02/07 10:23:42;;;;;;;3.42;1.85;;;;;;;8.13;83.23;95841.38;2097038;28;20193;-68
2024/02/07 10:24:45;;;;;;;2.60;1.98;;;;;;;8.18;83.07;95860.22;2096784;28;20196;-67
2024/02/07 10:25:51;;;;;;;4.88;1.40;;;;;;;8.23;83.28;95871.22;2098934;28;20200;-67
2024/02/07 10:26:53;;;;;;;7.10;1.73;;;;;;;8.23;83.49;95866.03;2098445;28;20211;-68
2024/02/07 10:28:05;;;;;;;7.90;1.80;;;;;;;8.26;83.60;95873.69;2098655;28;20238;-67
2024/02/07 10:29:07;;;;;;;5.82;2.38;;;;;;;8.25;83.33;95864.22;2087000;28;20200;-67
2024/02/07 10:30:09;;;;;;;2.90;1.45;;;;;;;8.23;83.27;95871.22;2088850;28;20192;-67
2024/02/07 10:31:12;;;;;;;3.65;1.33;;;;;;;8.28;83.58;95864.06;2097842;28;20697;-67
2024/02/07 10:32:18;;;;;;;5.85;1.83;;;;;;;8.30;83.14;95862.22;2098850;28;20608;-68
2024/02/07 10:33:20;;;;;;;5.30;1.58;;;;;;;8.37;83.13;95861.91;2100552;28;20334;-70
2024/02/07 10:34:33;;;;;;;3.85;1.65;;;;;;;8.37;82.78;95857.56;2100813;28;20275;-68
2024/02/07 10:35:35;;;;;;;10.68;1.52;;;;;;;8.30;83.12;95850.97;2099821;28;20207;-67
2024/02/07 10:36:37;;;;;;;3.53;1.70;;;;;;;8.30;83.12;95854.44;2100565;28;20196;-68
2024/02/07 10:37:42;;;;;;;3.50;1.50;;;;;;;8.28;83.20;95868.44;2093632;28;20201;-67
2024/02/07 10:38:43;;;;;;;4.28;1.48;;;;;;;8.19;83.15;95859.28;2093138;28;20234;-67
2024/02/07 10:39:45;;;;;;;3.75;1.50;;;;;;;8.13;83.55;95873.41;2098012;28;20210;-67
2024/02/07 10:40:47;;;;;;;4.75;1.63;;;;;;;8.11;83.49;95856.19;2097023;28;20230;-68
2024/02/07 10:41:50;;;;;;;4.50;1.27;;;;;;;8.07;84.02;95850.31;2098908;28;20261;-67
2024/02/07 10:42:56;;;;;;;6.88;2.25;;;;;;;7.84;83.98;95821.03;2098794;28;20239;-67
2024/02/07 10:44:05;;;;;;;3.50;1.92;;;;;;;8.08;84.03;95849.38;2095954;28;20223;-67
2024/02/07 10:45:14;;;;;;;2.28;1.20;;;;;;;8.03;83.91;95853.13;2100173;28;20195;-68
2024/02/07 10:46:18;;;;;;;1.98;1.20;;;;;;;8.02;83.88;95852.28;2097932;28;20676;-68
2024/02/07 10:47:19;;;;;;;9.07;1.77;;;;;;;7.99;84.23;95855.88;2097852;28;20212;-67
2024/02/07 10:51:06;;;;;;;5.82;1.73;;;;;;;8.03;84.57;95856.56;2091737;28;20550;-66
2024/02/07 10:52:11;;;;;;;2.95;1.38;;;;;;;7.92;83.97;95812.91;2083506;28;20759;-66
2024/02/07 10:53:13;;;;;;;6.60;1.50;;;;;;;8.20;83.18;95855.75;2074616;28;20198;-67
2024/02/07 10:54:15;;;;;;;3.58;1.42;;;;;;;8.25;83.37;95861.59;2077059;28;20190;-67
2024/02/07 10:55:18;;;;;;;3.67;1.42;;;;;;;8.36;83.30;95836.84;2077395;28;20198;-67
2024/02/07 10:56:21;;;;;;;2.78;1.50;;;;;;;8.35;83.38;95846.38;2077347;28;20198;-67
2024/02/07 10:57:27;;;;;;;5.93;1.58;;;;;;;8.42;82.46;95847.78;2079757;28;20772;-67
2024/02/07 10:58:29;;;;;;;3.75;1.38;;;;;;;8.41;82.02;95832.25;2079695;28;20197;-67
2024/02/07 10:59:31;;;;;;;3.10;1.23;;;;;;;8.26;82.18;95821.66;2077670;28;20403;-69
2024/02/07 11:00:33;;;;;;;2.00;0.88;;;;;;;8.31;82.52;95830.06;2076525;28;20781;-70
2024/02/07 11:01:35;;;;;;;3.90;1.35;;;;;;;8.38;82.75;95830.63;2076893;28;20202;-73
2024/02/07 11:02:36;;;;;;;2.50;1.30;;;;;;;8.48;82.70;95831.91;2076092;28;20247;-72
2024/02/07 11:03:38;;;;;;;6.05;1.42;;;;;;;8.48;82.31;95842.31;2077041;28;20197;-72
2024/02/07 11:04:40;;;;;;;3.22;1.60;;;;;;;8.45;82.22;95833.78;2076316;28;20235;-72
2024/02/07 11:05:42;;;;;;;4.53;1.42;;;;;;;8.45;82.34;95818.16;2076404;28;20666;-72
2024/02/07 11:06:45;;;;;;;2.75;0.93;;;;;;;8.78;81.46;95825.22;2077561;28;20209;-72
2024/02/07 11:07:48;;;;;;;5.90;1.55;;;;;;;9.72;78.55;95815.09;2078136;28;20703;-71
2024/02/07 11:08:54;;;;;;;4.13;1.80;;;;;;;10.14;76.76;95823.25;2077593;28;20288;-72
2024/02/07 11:09:56;;;;;;;2.80;1.13;;;;;;;10.35;76.25;95838.63;2077019;28;20205;-67
2024/02/07 11:10:58;;;;;;;2.90;1.40;;;;;;;9.59;78.05;95819.31;2078367;28;20257;-68
2024/02/07 11:12:00;;;;;;;2.30;1.20;;;;;;;9.80;77.54;95823.38;2073205;28;20897;-68
2024/02/07 11:13:02;;;;;;;4.40;1.50;;;;;;;10.31;76.58;95811.88;2076930;28;20625;-66
2024/02/07 11:14:05;;;;;;;2.75;1.08;;;;;;;10.22;76.82;95823.69;2077141;28;20217;-68
2024/02/07 11:15:09;;;;;;;2.60;0.93;;;;;;;10.24;76.23;95819.19;2077477;28;20197;-69
2024/02/07 11:16:11;;;;;;;16.25;1.33;;;;;;;10.16;76.62;95810.13;2076907;28;20205;-68
2024/02/07 11:17:16;;;;;;;2.90;1.30;;;;;;;10.12;76.96;95814.69;2072383;28;20577;-67
2024/02/07 11:18:17;;;;;;;3.60;1.20;;;;;;;9.92;77.92;95803.59;2069620;28;20635;-68
2024/02/07 11:19:19;;;;;;;5.20;1.48;;;;;;;9.94;78.10;95826.97;2070657;28;20287;-68
2024/02/07 11:20:21;;;;;;;3.05;0.98;;;;;;;10.23;76.64;95811.47;2072004;28;20893;-69
2024/02/07 11:21:28;;;;;;;3.22;1.15;;;;;;;10.20;76.69;95812.47;2067917;28;20281;-67
2024/02/07 11:22:36;;;;;;;6.95;1.27;;;;;;;10.33;76.41;95803.97;2074597;28;20233;-68
2024/02/07 11:23:39;;;;;;;2.67;1.10;;;;;;;10.70;74.96;95802.69;2077076;28;20202;-68
2024/02/07 11:24:44;;;;;;;1.75;1.00;;;;;;;10.99;73.95;95797.50;2075874;28;20202;-68
2024/02/07 11:25:46;;;;;;;2.90;1.10;;;;;;;10.44;75.14;95822.50;2075297;28;20230;-68
2024/02/07 11:26:49;;;;;;;5.00;1.10;;;;;;;10.56;75.25;95800.91;2076405;28;20209;-67
2024/02/07 11:27:52;;;;;;;3.05;1.90;;;;;;;10.55;74.92;95785.31;2076496;28;20285;-69
2024/02/07 11:28:55;;;;;;;6.53;1.48;;;;;;;10.15;75.89;95787.59;2076773;28;20738;-69
2024/02/07 11:29:57;;;;;;;5.05;1.67;;;;;;;10.34;76.25;95792.59;2077334;28;20881;-69
2024/02/07 11:31:01;;;;;;;3.42;1.10;;;;;;;10.32;75.87;95792.66;2073843;28;20801;-68
2024/02/07 11:32:04;;;;;;;4.90;1.50;;;;;;;10.50;74.82;95782.13;2075917;28;20229;-69
2024/02/07 11:33:09;;;;;;;3.85;1.50;;;;;;;11.00;73.62;95786.13;2076255;28;20368;-70
2024/02/07 11:34:11;;;;;;;3.38;1.23;;;;;;;11.06;73.42;95785.78;2076862;28;20202;-69
2024/02/07 11:35:12;;;;;;;2.17;1.23;;;;;;;10.70;73.53;95784.41;2076797;28;20212;-69
2024/02/07 11:36:16;;;;;;;2.65;1.30;;;;;;;10.64;74.66;95776.09;2077241;28;20592;-71
2024/02/07 11:37:18;;;;;;;3.58;1.23;;;;;;;11.03;73.93;95782.50;2064278;28;20907;-71
2024/02/07 11:38:20;;;;;;;3.92;1.48;;;;;;;10.51;75.18;95779.41;2068325;28;20206;-71
2024/02/07 11:39:22;;;;;;;4.25;1.30;;;;;;;10.45;75.52;95791.06;2074419;28;20205;-71
2024/02/07 11:40:26;;;;;;;3.00;1.40;;;;;;;10.22;76.04;95783.69;2075428;28;20720;-71
2024/02/07 11:41:28;;;;;;;2.10;1.10;;;;;;;10.07;77.08;95788.84;2077183;28;20721;-71
2024/02/07 11:42:38;;;;;;;3.45;1.30;;;;;;;9.71;77.83;95784.75;2075538;28;20227;-71
2024/02/07 11:43:42;;;;;;;2.42;0.90;;;;;;;9.48;78.75;95788.59;2076582;28;20193;-71
2024/02/07 11:44:57;;;;;;;4.10;1.50;;;;;;;9.50;78.96;95775.47;2074596;28;20206;-71
2024/02/07 11:46:05;;;;;;;2.45;1.20;;;;;;;9.29;79.59;95763.56;2076713;28;20201;-71
2024/02/07 11:47:06;;;;;;;3.38;1.40;;;;;;;9.39;80.18;95766.50;2073891;28;20217;-71
2024/02/07 11:48:22;;;;;;;1.90;1.10;;;;;;;9.59;79.28;95772.41;2074664;28;20625;-72
2024/02/07 11:49:28;;;;;;;2.45;0.90;;;;;;;9.46;78.23;95780.06;2073195;28;20205;-69
2024/02/07 11:50:37;;;;;;;2.25;1.10;;;;;;;9.58;79.08;95784.56;2076031;28;20716;-70
2024/02/07 11:51:39;;;;;;;3.15;1.33;;;;;;;10.07;78.20;95781.03;2076982;28;20202;-70
2024/02/07 11:52:42;;;;;;;4.40;1.38;;;;;;;10.11;77.59;95790.34;2075191;28;20627;-70
2024/02/07 11:53:45;;;;;;;3.70;1.70;;;;;;;10.33;77.13;95777.88;2077462;28;20248;-69
2024/02/07 11:54:48;;;;;;;2.00;1.10;;;;;;;10.50;75.60;95771.69;2075957;28;20210;-70
2024/02/07 11:55:50;;;;;;;2.35;0.80;;;;;;;10.67;75.41;95778.56;2076743;28;20280;-69
2024/02/07 11:56:55;;;;;;;5.15;1.55;;;;;;;10.82;75.04;95782.88;2063251;28;20202;-69
2024/02/07 11:57:57;;;;;;;4.70;1.13;;;;;;;10.50;75.80;95784.75;2075057;28;20234;-70
2024/02/07 11:59:01;;;;;;;1.90;0.98;;;;;;;10.16;77.22;95778.81;2075459;28;20203;-69
2024/02/07 12:00:06;;;;;;;2.60;1.10;;;;;;;10.20;77.16;95775.94;2076110;28;20213;-70
2024/02/07 12:01:09;;;;;;;6.07;1.17;;;;;;;9.82;78.06;95768.50;2076623;28;20194;-69
2024/02/07 12:02:11;;;;;;;5.22;1.30;;;;;;;9.72;78.79;95760.34;2072543;28;20222;-69
2024/02/07 12:03:15;;;;;;;5.00;1.35;;;;;;;9.68;78.92;95771.06;2070848;28;20653;-69
2024/02/07 12:04:16;;;;;;;2.72;1.17;;;;;;;9.47;79.22;95764.31;2070817;28;20226;-70
2024/02/07 12:05:23;;;;;;;2.90;1.75;;;;;;;9.63;79.88;95759.09;2071492;28;20190;-71
2024/02/07 12:06:25;;;;;;;2.90;1.30;;;;;;;9.50;79.67;95776.34;2070431;28;20207;-71
2024/02/07 12:07:28;;;;;;;3.90;2.08;;;;;;;9.63;79.68;95759.09;2071374;28;20230;-71
2024/02/07 12:08:30;;;;;;;5.43;1.80;;;;;;;9.87;78.96;95771.72;2071920;28;20198;-70
2024/02/07 12:09:32;;;;;;;3.63;1.23;;;;;;;10.01;78.19;95754.47;2071464;28;20702;-71
2024/02/07 12:10:34;;;;;;;3.20;1.27;;;;;;;10.32;77.29;95765.75;2070460;28;20202;-71
2024/02/07 12:11:37;;;;;;;6.85;1.90;;;;;;;9.96;77.23;95768.56;2071534;28;20214;-71
2024/02/07 12:12:38;;;;;;;2.10;1.10;;;;;;;9.96;77.93;95772.97;2048693;28;20282;-70
2024/02/07 12:13:41;;;;;;;2.08;1.15;;;;;;;9.90;78.49;95755.03;2070117;28;20200;-70
2024/02/07 12:14:43;;;;;;;7.88;1.73;;;;;;;9.76;79.44;95755.81;2069716;28;20199;-70
2024/02/07 12:15:44;;;;;;;5.78;1.48;;;;;;;9.55;79.14;95750.88;2070189;28;20206;-71
2024/02/07 12:16:46;;;;;;;7.03;1.60;;;;;;;9.68;79.81;95756.25;2068235;28;20463;-70
2024/02/07 12:17:47;;;;;;;2.63;0.90;;;;;;;9.47;79.81;95766.06;2064523;28;20253;-71
2024/02/07 12:18:49;;;;;;;5.25;1.27;;;;;;;9.58;79.71;95771.53;2070745;28;20281;-71
2024/02/07 12:19:51;;;;;;;2.67;0.90;;;;;;;9.68;79.31;95758.03;2070241;28;20206;-70
2024/02/07 12:20:59;;;;;;;6.97;1.42;;;;;;;9.61;79.59;95750.53;2079730;28;20389;-71
2024/02/07 12:22:01;;;;;;;2.30;1.08;;;;;;;9.71;80.02;95755.22;2075929;28;20229;-70
2024/02/07 12:23:03;;;;;;;3.78;1.17;;;;;;;9.58;79.45;95761.13;2071364;28;20559;-71
2024/02/07 12:24:05;;;;;;;2.58;1.13;;;;;;;9.29;80.07;95731.44;2070050;28;20297;-71
2024/02/07 12:25:16;;;;;;;1.48;0.80;;;;;;;9.24;80.56;95746.47;2071824;28;20198;-70
2024/02/07 12:26:23;;;;;;;4.18;1.13;;;;;;;9.10;81.11;95747.22;2070780;28;20206;-71
2024/02/07 12:27:24;;;;;;;3.25;1.00;;;;;;;9.03;80.60;95749.31;2069868;28;20632;-71
2024/02/07 12:28:28;;;;;;;1.77;1.00;;;;;;;8.99;81.61;95756.44;2070566;28;20194;-72
2024/02/07 12:29:29;;;;;;;2.03;1.00;;;;;;;8.97;81.76;95747.03;2070616;28;20202;-70
2024/02/07 12:30:31;;;;;;;2.22;1.20;;;;;;;9.04;82.01;95748.38;2071111;28;20199;-71
2024/02/07 12:31:33;;;;;;;2.40;0.95;;;;;;;9.22;81.75;95756.97;2071516;28;20539;-67
2024/02/07 12:32:37;;;;;;;3.45;1.40;;;;;;;9.17;81.22;95753.78;2058399;28;20234;-66
2024/02/07 12:33:40;;;;;;;3.53;1.33;;;;;;;9.15;81.30;95747.81;2071488;28;20194;-66
2024/02/07 12:34:42;;;;;;;1.80;1.02;;;;;;;9.11;81.42;95754.09;2071646;28;20209;-67
2024/02/07 12:35:54;;;;;;;2.13;0.88;;;;;;;9.17;81.20;95737.28;2071955;28;20195;-66
2024/02/07 12:36:57;;;;;;;1.80;0.98;;;;;;;9.24;81.33;95743.88;2078876;28;20652;-66
2024/02/07 12:37:59;;;;;;;2.00;0.90;;;;;;;9.20;80.62;95729.34;2078673;28;20550;-66
2024/02/07 12:39:01;;;;;;;2.53;0.80;;;;;;;9.21;80.61;95750.09;2070825;28;20604;-66
2024/02/07 12:40:10;;;;;;;6.45;1.10;;;;;;;9.12;80.98;95716.72;2071642;28;20655;-66
2024/02/07 12:41:14;;;;;;;2.25;0.95;;;;;;;9.33;79.96;95748.56;2068591;28;20198;-66
2024/02/07 12:42:19;;;;;;;1.67;1.00;;;;;;;9.23;80.11;95747.38;2068937;28;20363;-67
2024/02/07 12:43:25;;;;;;;1.98;0.90;;;;;;;9.17;80.71;95742.50;2070330;28;20202;-67
2024/02/07 12:44:27;;;;;;;1.63;1.00;;;;;;;9.09;80.48;95746.38;2070977;28;20271;-66
2024/02/07 12:45:32;;;;;;;1.17;0.70;;;;;;;8.94;81.00;95749.81;2070400;28;20631;-66
2024/02/07 12:46:33;;;;;;;2.03;0.80;;;;;;;8.93;81.29;95730.72;2070074;28;20264;-66
2024/02/07 12:47:35;;;;;;;3.88;0.90;;;;;;;8.89;81.34;95744.81;2067833;28;20230;-67
2024/02/07 12:48:36;;;;;;;1.20;0.80;;;;;;;8.99;81.35;95750.41;2070919;28;20293;-67
2024/02/07 12:49:39;;;;;;;1.55;0.80;;;;;;;9.03;81.82;95754.50;2070937;28;20195;-66
2024/02/07 12:50:41;;;;;;;1.60;0.90;;;;;;;9.06;81.37;95736.09;2068180;28;20284;-66
2024/02/07 12:51:42;;;;;;;1.98;0.90;;;;;;;9.19;80.93;95748.47;2067890;28;20211;-66
2024/02/07 12:52:44;;;;;;;1.75;1.00;;;;;;;9.32;80.35;95742.53;2067571;28;20295;-67
2024/02/07 12:53:46;;;;;;;1.50;0.90;;;;;;;9.23;80.16;95732.63;2063235;28;20253;-67
2024/02/07 12:54:47;;;;;;;1.88;0.80;;;;;;;9.31;80.07;95735.63;2067785;28;20234;-66
2024/02/07 12:55:50;;;;;;;3.80;1.25;;;;;;;9.37;80.46;95744.91;2069779;28;20240;-67
2024/02/07 12:56:53;;;;;;;4.30;1.10;;;;;;;9.21;79.96;95718.81;2071403;28;20217;-66
2024/02/07 12:58:04;;;;;;;2.33;1.08;;;;;;;9.27;80.43;95736.72;2070746;28;20212;-67
2024/02/07 12:59:07;;;;;;;1.92;0.90;;;;;;;9.38;80.11;95727.50;2069018;28;20195;-67
2024/02/07 13:00:11;;;;;;;1.58;0.70;;;;;;;9.20;79.42;95721.53;2066957;28;20200;-67
2024/02/07 13:01:18;;;;;;;1.10;0.60;;;;;;;8.93;78.99;95712.50;2067781;28;20325;-66
2024/02/07 13:02:23;;;;;;;3.03;0.70;;;;;;;8.95;79.83;95728.03;2070487;28;20893;-67
2024/02/07 13:03:25;;;;;;;2.65;0.80;;;;;;;8.88;80.53;95735.31;2070724;28;20205;-68
2024/02/07 13:04:27;;;;;;;2.38;0.90;;;;;;;8.92;81.17;95734.22;2070478;28;20264;-68
2024/02/07 13:05:28;;;;;;;3.13;1.00;;;;;;;8.95;81.17;95731.47;2071102;28;20207;-68
2024/02/07 13:06:30;;;;;;;2.00;0.90;;;;;;;8.96;81.29;95730.56;2069726;28;20226;-68
2024/02/07 13:07:32;;;;;;;1.35;0.70;;;;;;;8.84;80.86;95723.41;2069424;28;20755;-68
2024/02/07 13:08:33;;;;;;;1.45;0.85;;;;;;;8.74;80.45;95714.38;2070996;28;20229;-68
2024/02/07 13:09:35;;;;;;;2.58;0.80;;;;;;;8.76;80.85;95715.13;2071413;28;20206;-68
2024/02/07 13:10:40;;;;;;;1.88;0.73;;;;;;;8.82;80.78;95720.03;2071501;28;20385;-69
2024/02/07 13:11:42;;;;;;;2.13;0.80;;;;;;;8.75;81.32;95710.88;2070569;28;20202;-68
2024/02/07 13:12:44;;;;;;;1.42;0.80;;;;;;;8.64;80.98;95719.22;2067773;28;20230;-67
2024/02/07 13:13:45;;;;;;;1.67;0.70;;;;;;;8.67;81.21;95719.06;2068685;28;20230;-69
2024/02/07 13:14:47;;;;;;;2.25;0.80;;;;;;;8.69;81.70;95705.97;2071566;28;20198;-69
2024/02/07 13:15:49;;;;;;;2.20;1.00;;;;;;;8.76;81.79;95717.72;2071563;28;20309;-69
2024/02/07 13:16:51;;;;;;;3.30;0.82;;;;;;;8.72;81.99;95718.81;2070580;28;20645;-69
2024/02/07 13:17:53;;;;;;;1.45;0.95;;;;;;;8.77;82.01;95696.84;2070988;28;20198;-68
2024/02/07 13:18:55;;;;;;;2.55;0.98;;;;;;;8.83;81.99;95713.91;2071356;28;20206;-68
2024/02/07 13:19:56;;;;;;;1.38;0.80;;;;;;;8.76;81.26;95697.75;2070702;28;20195;-68
2024/02/07 13:21:05;;;;;;;2.00;0.80;;;;;;;8.76;80.72;95713.38;2069960;28;20255;-68
2024/02/07 13:22:12;;;;;;;1.33;0.75;;;;;;;8.74;80.84;95699.59;2069455;28;20194;-67
2024/02/07 13:23:14;;;;;;;2.22;0.82;;;;;;;8.64;80.74;95695.81;2071163;28;20249;-68
2024/02/07 13:24:20;;;;;;;1.63;0.90;;;;;;;8.79;80.63;95699.38;2070000;28;20206;-68
2024/02/07 13:25:23;;;;;;;4.25;1.40;;;;;;;8.84;80.62;95710.38;2069106;28;20252;-69
2024/02/07 13:26:25;;;;;;;2.28;1.35;;;;;;;8.70;80.74;95702.44;2070297;28;20233;-70
2024/02/07 13:27:26;;;;;;;2.35;1.35;;;;;;;8.58;80.24;95690.91;2070076;28;20234;-68
2024/02/07 13:28:28;;;;;;;2.55;1.40;;;;;;;8.62;80.97;95702.84;2070751;28;20640;-70
2024/02/07 13:29:30;;;;;;;7.13;1.40;;;;;;;8.60;81.22;95702.09;2070426;28;20461;-69
2024/02/07 13:30:32;;;;;;;2.13;1.00;;;;;;;8.62;81.06;95700.22;2068736;28;20191;-70
2024/02/07 13:31:33;;;;;;;8.43;4.15;;;;;;;8.68;80.87;95694.72;2068156;28;20211;-68
2024/02/07 13:32:35;;;;;;;2.80;1.33;;;;;;;8.59;80.88;95706.44;2069741;28;20222;-71
2024/02/07 13:33:37;;;;;;;1.73;0.90;;;;;;;8.53;80.62;95701.53;2068596;28;20206;-66
2024/02/07 13:34:41;;;;;;;4.25;1.02;;;;;;;8.54;81.25;95705.00;2070531;28;20194;-66
2024/02/07 13:35:43;;;;;;;3.15;1.50;;;;;;;8.53;81.33;95695.50;2069809;28;20237;-65
2024/02/07 13:36:44;;;;;;;5.18;2.05;;;;;;;8.48;81.32;95700.94;2069452;28;20195;-66
2024/02/07 13:37:46;;;;;;;6.97;2.60;;;;;;;8.57;81.34;95687.47;2070476;28;20237;-66
2024/02/07 13:38:47;;;;;;;4.28;2.10;;;;;;;8.56;81.47;95695.34;2067629;28;20207;-66
2024/02/07 13:39:49;;;;;;;2.63;1.30;;;;;;;8.61;81.30;95698.56;2070926;28;20198;-66
2024/02/07 13:40:50;;;;;;;1.73;1.02;;;;;;;8.52;81.10;95697.28;2071014;28;20198;-66
2024/02/07 13:41:52;;;;;;;3.85;1.38;;;;;;;8.52;81.25;95693.81;2070453;28;20202;-66
2024/02/07 13:42:53;;;;;;;2.92;1.05;;;;;;;8.47;81.33;95686.28;2070891;28;20289;-66
2024/02/07 13:43:56;;;;;;;3.67;1.05;;;;;;;8.50;81.43;95694.75;2071064;28;20243;-66
2024/02/07 13:44:58;;;;;;;2.60;1.02;;;;;;;8.50;81.62;95680.91;2070333;28;20743;-65
2024/02/07 13:45:59;;;;;;;4.28;1.77;;;;;;;8.41;81.30;95669.19;2069823;28;20206;-64
2024/02/07 13:47:01;;;;;;;3.78;1.52;;;;;;;8.56;81.53;95691.00;2069569;28;20258;-64
2024/02/07 13:48:04;;;;;;;1.83;0.98;;;;;;;8.44;81.65;95676.84;2070693;28;20260;-64
2024/02/07 13:52:36;;;;;;;1.50;0.70;;;;;;;8.12;81.88;95674.09;2082396;27;20560;-65
2024/02/07 13:56:45;;;;;;;2.60;0.90;;;;;;;8.07;82.90;95665.69;2083471;27;20584;-66
2024/02/07 13:57:46;;;;;;;2.00;0.80;;;;;;;8.21;83.01;95677.16;2072026;28;20249;-67
2024/02/07 14:01:39;;;;;;;1.45;1.05;;;;;;;8.11;82.71;95663.78;2083888;28;21055;-66
2024/02/07 14:02:42;;;;;;;2.30;1.20;;;;;;;8.16;83.15;95678.25;2073169;28;20222;-66
2024/02/07 14:03:43;;;;;;;1.83;0.80;;;;;;;8.14;82.89;95674.88;2081936;28;20197;-67
2024/02/07 14:04:45;;;;;;;1.67;0.90;;;;;;;8.24;82.54;95675.25;2076700;28;20588;-67
2024/02/07 14:05:46;;;;;;;2.15;1.05;;;;;;;8.37;82.67;95665.06;2076056;28;20209;-67
2024/02/07 14:06:48;;;;;;;2.45;1.15;;;;;;;8.48;82.07;95657.56;2079216;28;20288;-67
2024/02/07 14:07:49;;;;;;;2.33;0.95;;;;;;;8.57;81.52;95665.81;2074910;28;20222;-67
2024/02/07 14:08:51;;;;;;;1.48;0.80;;;;;;;8.58;81.37;95670.94;2080140;28;20208;-67
2024/02/07 14:09:53;;;;;;;2.50;0.80;;;;;;;8.46;81.02;95668.97;2080083;28;20722;-65
2024/02/07 14:10:54;;;;;;;2.80;0.90;;;;;;;8.34;80.80;95642.63;2080645;28;20193;-65
2024/02/07 14:11:56;;;;;;;1.65;0.80;;;;;;;8.43;81.21;95669.09;2070731;28;20653;-65
2024/02/07 14:12:57;;;;;;;3.15;1.15;;;;;;;8.48;81.22;95669.72;2091214;28;20238;-65
2024/02/07 14:13:59;;;;;;;1.95;0.80;;;;;;;8.44;80.86;95652.56;2089693;28;20193;-65
2024/02/07 14:15:01;;;;;;;3.13;0.75;;;;;;;8.36;80.29;95665.16;2080828;28;20219;-64
2024/02/07 14:16:03;;;;;;;3.42;0.80;;;;;;;8.37;80.45;95661.59;2074687;28;20225;-65
2024/02/07 14:17:04;;;;;;;1.65;0.90;;;;;;;8.41;80.66;95657.94;2079193;28;20734;-65
2024/02/07 14:18:06;;;;;;;1.92;0.90;;;;;;;8.45;80.96;95654.25;2081246;28;20212;-65
2024/02/07 14:19:08;;;;;;;1.70;0.90;;;;;;;8.45;80.93;95665.47;2080827;28;20224;-65
2024/02/07 14:20:10;;;;;;;1.83;0.90;;;;;;;8.40;80.79;95664.06;2081569;28;20253;-63
2024/02/07 14:21:12;;;;;;;1.67;0.80;;;;;;;8.42;80.94;95655.25;2077474;28;20249;-63
2024/02/07 14:22:13;;;;;;;3.03;1.10;;;;;;;8.47;81.70;95673.25;2078067;28;20320;-63
2024/02/07 14:23:16;;;;;;;2.58;0.80;;;;;;;8.35;81.16;95648.66;2079110;28;20657;-63
2024/02/07 14:24:17;;;;;;;1.67;0.95;;;;;;;8.40;81.27;95648.44;2077604;28;20244;-64
2024/02/07 14:25:19;;;;;;;2.72;0.80;;;;;;;8.36;81.13;95665.16;2077880;28;20193;-63
2024/02/07 14:26:21;;;;;;;3.42;1.00;;;;;;;8.30;81.16;95656.75;2079863;28;20198;-64
2024/02/07 14:27:22;;;;;;;2.83;1.05;;;;;;;8.28;81.63;95652.53;2075781;28;20233;-64
2024/02/07 14:28:24;;;;;;;2.38;1.02;;;;;;;8.42;81.62;95657.84;2074293;28;20217;-63
2024/02/07 14:29:25;;;;;;;2.72;1.48;;;;;;;8.46;81.18;95658.56;2078053;28;20654;-63
2024/02/07 14:30:27;;;;;;;5.38;1.83;;;;;;;8.45;81.44;95651.66;2079232;28;20233;-63
2024/02/07 14:31:29;;;;;;;2.45;1.13;;;;;;;8.32;81.03;95643.66;2089104;28;20200;-63
2024/02/07 14:32:30;;;;;;;3.55;0.98;;;;;;;8.30;81.94;95642.88;2080765;28;20324;-63
2024/02/07 14:33:33;;;;;;;1.65;0.70;;;;;;;8.29;82.12;95644.63;2080639;28;20549;-63
2024/02/07 14:34:34;;;;;;;2.25;0.98;;;;;;;8.23;81.48;95646.69;2076811;28;20845;-63
2024/02/07 14:35:36;;;;;;;3.67;1.10;;;;;;;8.26;81.82;95652.59;2074809;28;20205;-64
2024/02/07 14:36:37;;;;;;;2.80;1.35;;;;;;;8.27;82.30;95643.88;2077770;28;20229;-63
2024/02/07 14:37:39;;;;;;;1.45;0.77;;;;;;;8.21;82.65;95638.97;2077500;28;20229;-64
2024/02/07 14:38:41;;;;;;;2.15;0.80;;;;;;;8.17;82.36;95653.91;2081700;28;20198;-64
2024/02/07 14:39:42;;;;;;;1.38;0.68;;;;;;;8.13;82.46;95641.16;2080696;28;20201;-64
2024/02/07 15:01:54;;;;;;;2.15;1.25;;;;;;;7.90;82.83;95601.56;2100871;27;20547;-65
2024/02/07 15:02:58;;;;;;;4.15;1.55;;;;;;;7.88;83.30;95605.97;2094040;28;20282;-66
2024/02/07 15:05:53;;;;;;;1.58;1.10;;;;;;;7.83;83.39;95600.16;2124555;27;21052;-65
2024/02/07 15:08:50;;;;;;;5.13;1.00;;;;;;;7.80;83.38;95595.13;2107613;27;20547;-64
2024/02/07 15:09:52;;;;;;;1.70;0.80;;;;;;;7.80;82.66;95590.78;2103478;28;20200;-65
2024/02/07 15:12:51;;;;;;;3.75;1.20;;;;;;;7.76;83.42;95583.22;2083740;27;20571;-65
2024/02/07 15:13:53;;;;;;;1.77;0.90;;;;;;;7.79;83.19;95583.06;2078823;28;20192;-63
2024/02/07 15:14:54;;;;;;;4.75;1.25;;;;;;;7.91;83.03;95585.03;2078082;28;20251;-64
2024/02/07 15:15:56;;;;;;;4.13;1.50;;;;;;;7.95;83.26;95589.16;2081229;28;20590;-64
2024/02/07 15:16:57;;;;;;;5.45;2.90;;;;;;;7.96;83.31;95593.44;2080456;28;20370;-64
2024/02/07 15:17:59;;;;;;;7.15;1.10;;;;;;;7.93;83.21;95584.97;2079315;28;20198;-65
